createdAt,value
2019-05-19T00:00:33.342Z,70.63
2019-05-19T00:03:01.836Z,70.65
2019-05-19T00:05:30.302Z,70.37
2019-05-19T00:07:58.762Z,70.78
2019-05-19T00:10:27.230Z,71.00
2019-05-19T00:12:55.672Z,71.08
2019-05-19T00:15:24.143Z,71.71
2019-05-19T00:17:52.582Z,72.67
2019-05-19T00:20:21.056Z,73.27
2019-05-19T00:22:49.505Z,74.39
2019-05-19T00:25:17.964Z,74.67
2019-05-19T00:27:46.425Z,74.45
2019-05-19T00:30:15.025Z,74.36
2019-05-19T00:32:43.662Z,74.09
2019-05-19T00:35:12.160Z,72.79
2019-05-19T00:37:40.628Z,73.61
2019-05-19T00:40:09.529Z,72.78
2019-05-19T00:42:38.050Z,73.22
2019-05-19T00:45:08.374Z,72.05
2019-05-19T00:47:36.813Z,72.53
2019-05-19T00:50:08.501Z,72.74
2019-05-19T00:52:36.942Z,72.58
2019-05-19T00:55:06.693Z,72.88
2019-05-19T00:57:36.499Z,72.56
2019-05-19T01:00:09.524Z,71.97
2019-05-19T01:02:38.047Z,72.19
2019-05-19T01:05:08.016Z,71.89
2019-05-19T01:07:36.842Z,72.78
2019-05-19T01:10:07.590Z,73.60
2019-05-19T01:12:36.053Z,74.51
2019-05-19T01:15:06.566Z,75.15
2019-05-19T01:17:35.051Z,74.70
2019-05-19T01:20:04.851Z,73.96
2019-05-19T01:22:33.312Z,73.69
2019-05-19T01:25:01.835Z,74.78
2019-05-19T01:27:30.237Z,75.20
2019-05-19T01:29:58.667Z,74.93
2019-05-19T01:32:27.139Z,74.02
2019-05-19T01:34:55.598Z,73.97
2019-05-19T01:37:24.061Z,74.08
2019-05-19T01:39:52.547Z,74.82
2019-05-19T01:42:20.987Z,75.14
2019-05-19T01:44:49.467Z,75.20
2019-05-19T01:47:18.009Z,74.90
2019-05-19T01:49:46.455Z,76.80
2019-05-19T01:52:14.905Z,77.48
2019-05-19T01:54:43.371Z,76.71
2019-05-19T01:57:11.846Z,77.41
2019-05-19T01:59:40.305Z,78.12
2019-05-19T02:02:08.781Z,76.92
2019-05-19T02:04:37.221Z,76.49
2019-05-19T02:07:05.698Z,75.96
2019-05-19T02:09:34.175Z,75.47
2019-05-19T02:12:02.623Z,75.94
2019-05-19T02:14:31.128Z,76.69
2019-05-19T02:16:59.573Z,76.58
2019-05-19T02:19:28.023Z,76.83
2019-05-19T02:21:56.498Z,75.54
2019-05-19T02:24:24.955Z,75.85
2019-05-19T02:26:53.405Z,75.87
2019-05-19T02:29:21.884Z,75.45
2019-05-19T02:31:50.355Z,74.73
2019-05-19T02:34:18.809Z,75.28
2019-05-19T02:36:47.281Z,75.14
2019-05-19T02:39:15.747Z,75.33
2019-05-19T02:41:47.241Z,76.05
2019-05-19T02:44:17.549Z,76.20
2019-05-19T02:46:46.645Z,75.65
2019-05-19T02:49:17.256Z,75.65
2019-05-19T02:51:49.602Z,75.54
2019-05-19T02:54:19.942Z,75.54
2019-05-19T02:56:49.834Z,75.64
2019-05-19T02:59:20.545Z,75.65
2019-05-19T03:02:02.639Z,75.29
2019-05-19T03:04:31.207Z,75.35
2019-05-19T03:06:59.707Z,75.25
2019-05-19T03:09:29.311Z,75.21
2019-05-19T03:11:57.795Z,75.47
2019-05-19T03:14:26.282Z,74.96
2019-05-19T03:16:54.700Z,74.47
2019-05-19T03:19:23.199Z,73.77
2019-05-19T03:21:51.686Z,74.69
2019-05-19T03:24:20.142Z,74.66
2019-05-19T03:26:49.323Z,75.30
2019-05-19T03:29:19.421Z,75.21
2019-05-19T03:31:52.243Z,75.21
2019-05-19T03:34:20.668Z,75.46
2019-05-19T03:36:49.106Z,74.62
2019-05-19T03:39:17.589Z,74.37
2019-05-19T03:41:46.105Z,74.20
2019-05-19T03:44:14.597Z,74.33
2019-05-19T03:46:43.775Z,73.83
2019-05-19T03:49:12.245Z,74.16
2019-05-19T03:51:40.681Z,74.08
2019-05-19T03:54:09.187Z,74.21
2019-05-19T03:56:37.598Z,74.24
2019-05-19T03:59:06.048Z,73.51
2019-05-19T04:01:34.520Z,73.34
2019-05-19T04:04:02.994Z,75.03
2019-05-19T04:06:31.431Z,75.20
2019-05-19T04:08:59.911Z,73.64
2019-05-19T04:11:28.352Z,72.92
2019-05-19T04:13:56.811Z,73.77
2019-05-19T04:16:25.290Z,73.19
2019-05-19T04:18:53.799Z,73.32
2019-05-19T04:21:22.255Z,72.39
2019-05-19T04:23:50.712Z,73.19
2019-05-19T04:26:19.150Z,72.14
2019-05-19T04:28:47.647Z,71.21
2019-05-19T04:31:16.084Z,70.85
2019-05-19T04:33:44.515Z,70.14
2019-05-19T04:36:12.993Z,71.58
2019-05-19T04:38:41.427Z,70.76
2019-05-19T04:41:09.885Z,69.39
2019-05-19T04:43:38.365Z,69.00
2019-05-19T04:46:06.820Z,68.35
2019-05-19T04:48:35.292Z,68.62
2019-05-19T04:51:03.817Z,68.92
2019-05-19T04:53:32.231Z,69.61
2019-05-19T04:56:00.693Z,69.90
2019-05-19T04:58:29.177Z,70.51
2019-05-19T05:00:57.603Z,70.48
2019-05-19T05:03:26.078Z,70.11
2019-05-19T05:05:54.515Z,69.75
2019-05-19T05:08:29.896Z,69.19
2019-05-19T05:10:53.142Z,68.68
2019-05-19T05:13:21.610Z,68.54
2019-05-19T05:15:50.066Z,68.81
2019-05-19T05:18:18.541Z,67.75
2019-05-19T05:20:46.966Z,66.46
2019-05-19T05:23:15.419Z,66.10
2019-05-19T05:25:43.872Z,66.11
2019-05-19T05:28:12.334Z,67.00
2019-05-19T05:30:40.817Z,67.26
2019-05-19T05:33:09.258Z,67.52
2019-05-19T05:35:37.689Z,66.87
2019-05-19T05:38:06.160Z,65.71
2019-05-19T05:40:34.617Z,66.79
2019-05-19T05:43:03.081Z,67.01
2019-05-19T05:45:31.577Z,67.30
2019-05-19T05:48:00.002Z,66.63
2019-05-19T05:50:28.475Z,65.78
2019-05-19T05:52:56.916Z,65.87
2019-05-19T05:55:25.357Z,65.98
2019-05-19T05:57:53.818Z,65.29
2019-05-19T06:00:23.872Z,64.45
2019-05-19T06:02:52.332Z,64.28
2019-05-19T06:05:20.784Z,63.65
2019-05-19T06:07:49.237Z,63.70
2019-05-19T06:10:18.514Z,64.30
2019-05-19T06:12:46.991Z,64.06
2019-05-19T06:15:15.433Z,63.96
2019-05-19T06:17:43.895Z,63.40
2019-05-19T06:20:12.610Z,64.11
2019-05-19T06:22:55.052Z,63.06
2019-05-19T06:25:11.406Z,61.32
2019-05-19T06:27:39.880Z,61.01
2019-05-19T06:30:09.055Z,61.50
2019-05-19T06:32:45.330Z,61.41
2019-05-19T06:35:14.221Z,61.81
2019-05-19T06:37:42.686Z,61.80
2019-05-19T06:40:12.400Z,61.42
2019-05-19T06:42:41.795Z,60.43
2019-05-19T06:45:10.790Z,59.92
2019-05-19T06:47:39.264Z,58.83
2019-05-19T06:50:08.749Z,58.24
2019-05-19T06:52:37.218Z,58.56
2019-05-19T06:55:06.919Z,58.41
2019-05-19T06:57:35.367Z,57.95
2019-05-19T07:00:05.866Z,57.84
2019-05-19T07:02:34.382Z,57.46
2019-05-19T07:05:03.063Z,57.18
2019-05-19T07:07:31.466Z,57.05
2019-05-19T07:09:59.983Z,57.08
2019-05-19T07:12:28.425Z,56.53
2019-05-19T07:14:56.904Z,56.89
2019-05-19T07:17:25.364Z,56.14
2019-05-19T07:19:53.843Z,56.20
2019-05-19T07:22:22.310Z,55.74
2019-05-19T07:24:50.761Z,55.54
2019-05-19T07:27:19.309Z,54.70
2019-05-19T07:29:49.263Z,54.43
2019-05-19T07:32:17.733Z,53.85
2019-05-19T07:34:46.214Z,52.89
2019-05-19T07:37:14.658Z,53.76
2019-05-19T07:39:43.142Z,53.38
2019-05-19T07:42:11.685Z,53.04
2019-05-19T07:44:40.137Z,52.50
2019-05-19T07:47:08.586Z,51.34
2019-05-19T07:49:37.065Z,51.79
2019-05-19T07:52:05.540Z,51.32
2019-05-19T07:54:35.667Z,50.33
2019-05-19T07:57:04.168Z,50.77
2019-05-19T07:59:32.644Z,50.51
2019-05-19T08:02:01.117Z,50.98
2019-05-19T08:04:29.537Z,49.08
2019-05-19T08:06:58.009Z,48.77
2019-05-19T08:09:26.491Z,48.75
2019-05-19T08:11:54.983Z,48.58
2019-05-19T08:14:23.521Z,48.86
2019-05-19T08:16:51.989Z,47.62
2019-05-19T08:19:20.442Z,47.53
2019-05-19T08:21:48.979Z,47.41
2019-05-19T08:24:17.436Z,47.43
2019-05-19T08:26:45.877Z,47.03
2019-05-19T08:29:14.353Z,46.42
2019-05-19T08:31:42.796Z,45.52
2019-05-19T08:34:11.397Z,45.21
2019-05-19T08:36:39.839Z,44.53
2019-05-19T08:39:08.303Z,45.21
2019-05-19T08:41:36.740Z,44.65
2019-05-19T08:44:05.460Z,43.83
2019-05-19T08:46:33.954Z,43.36
2019-05-19T08:49:02.393Z,43.53
2019-05-19T08:51:30.835Z,44.56
2019-05-19T08:54:12.545Z,44.67
2019-05-19T08:56:29.501Z,44.57
2019-05-19T08:58:57.957Z,44.57
2019-05-19T09:01:26.416Z,45.77
2019-05-19T09:03:54.853Z,46.20
2019-05-19T09:06:23.371Z,46.92
2019-05-19T09:08:51.878Z,46.36
2019-05-19T09:11:20.362Z,46.16
2019-05-19T09:13:48.818Z,45.67
2019-05-19T09:16:17.305Z,45.78
2019-05-19T09:18:45.728Z,45.74
2019-05-19T09:21:14.178Z,45.60
2019-05-19T09:23:42.639Z,45.23
2019-05-19T09:26:11.150Z,45.54
2019-05-19T09:28:39.609Z,44.75
2019-05-19T09:31:08.081Z,44.82
2019-05-19T09:33:36.516Z,45.36
2019-05-19T09:36:04.985Z,44.73
2019-05-19T09:38:33.634Z,45.45
2019-05-19T09:41:02.214Z,45.70
2019-05-19T09:43:30.675Z,44.20
2019-05-19T09:45:59.483Z,44.43
2019-05-19T09:48:27.975Z,44.28
2019-05-19T09:50:56.455Z,44.34
2019-05-19T09:53:24.875Z,44.41
2019-05-19T09:55:53.318Z,44.91
2019-05-19T09:58:21.807Z,42.75
2019-05-19T10:00:50.271Z,42.71
2019-05-19T10:03:19.740Z,43.40
2019-05-19T10:05:48.373Z,43.95
2019-05-19T10:08:18.522Z,43.92
2019-05-19T10:11:11.543Z,42.81
2019-05-19T10:13:40.025Z,42.87
2019-05-19T10:16:08.452Z,42.70
2019-05-19T10:18:36.906Z,43.63
2019-05-19T10:21:05.368Z,44.06
2019-05-19T10:23:33.845Z,45.06
2019-05-19T10:26:02.295Z,44.52
2019-05-19T10:28:30.724Z,44.98
2019-05-19T10:30:59.186Z,44.01
2019-05-19T10:33:27.648Z,43.86
2019-05-19T10:35:56.095Z,43.66
2019-05-19T10:38:24.558Z,43.99
2019-05-19T10:40:53.038Z,43.45
2019-05-19T10:43:21.500Z,42.62
2019-05-19T10:45:51.584Z,42.75
2019-05-19T10:48:20.023Z,42.74
2019-05-19T10:50:48.520Z,42.31
2019-05-19T10:53:16.952Z,42.20
2019-05-19T10:55:46.278Z,41.68
2019-05-19T10:58:14.733Z,41.33
2019-05-19T11:00:43.210Z,41.92
2019-05-19T11:03:11.651Z,42.11
2019-05-19T11:05:40.120Z,42.22
2019-05-19T11:08:08.588Z,42.24
2019-05-19T11:10:37.027Z,42.68
2019-05-19T11:13:05.465Z,41.92
2019-05-19T11:15:33.942Z,41.96
2019-05-19T11:18:02.409Z,41.43
2019-05-19T11:20:30.862Z,41.09
2019-05-19T11:22:59.330Z,41.22
2019-05-19T11:25:33.805Z,40.71
2019-05-19T11:27:57.957Z,40.83
2019-05-19T11:30:26.439Z,40.28
2019-05-19T11:32:54.931Z,40.14
2019-05-19T11:35:23.401Z,40.22
2019-05-19T11:37:51.840Z,40.02
2019-05-19T11:40:20.316Z,39.26
2019-05-19T11:42:48.746Z,38.88
2019-05-19T11:45:17.483Z,38.55
2019-05-19T11:47:45.916Z,38.42
2019-05-19T11:50:14.515Z,38.74
2019-05-19T11:52:43.010Z,39.51
2019-05-19T11:55:11.688Z,39.30
2019-05-19T11:57:40.147Z,39.86
2019-05-19T12:00:09.377Z,40.04
2019-05-19T12:02:37.843Z,41.09
2019-05-19T12:05:06.463Z,40.97
2019-05-19T12:07:34.906Z,40.83
2019-05-19T12:10:03.507Z,41.29
2019-05-19T12:12:31.988Z,40.55
2019-05-19T12:15:00.455Z,40.58
2019-05-19T12:17:28.926Z,40.97
2019-05-19T12:19:57.362Z,40.28
2019-05-19T12:22:25.836Z,40.27
2019-05-19T12:24:54.267Z,41.32
2019-05-19T12:27:22.730Z,42.42
2019-05-19T12:29:52.496Z,42.07
2019-05-19T12:32:20.982Z,42.13
2019-05-19T12:34:49.441Z,41.91
2019-05-19T12:37:17.909Z,41.81
2019-05-19T12:39:46.358Z,41.86
2019-05-19T12:42:14.815Z,42.15
2019-05-19T12:44:43.247Z,43.08
2019-05-19T12:47:11.696Z,41.93
2019-05-19T12:49:40.164Z,41.81
2019-05-19T12:52:08.593Z,42.36
2019-05-19T12:54:37.090Z,43.07
2019-05-19T12:57:05.706Z,41.84
2019-05-19T12:59:34.165Z,42.80
2019-05-19T13:02:02.604Z,42.41
2019-05-19T13:04:31.037Z,42.61
2019-05-19T13:06:59.501Z,41.72
2019-05-19T13:09:28.008Z,42.84
2019-05-19T13:11:56.493Z,42.89
2019-05-19T13:14:24.935Z,42.23
2019-05-19T13:16:53.402Z,41.79
2019-05-19T13:19:21.879Z,41.29
2019-05-19T13:21:50.334Z,39.74
2019-05-19T13:24:18.795Z,40.54
2019-05-19T13:26:55.960Z,41.11
2019-05-19T13:29:17.436Z,41.42
2019-05-19T13:31:46.655Z,41.06
2019-05-19T13:34:15.268Z,39.43
2019-05-19T13:36:43.721Z,38.93
2019-05-19T13:39:12.157Z,39.63
2019-05-19T13:41:40.623Z,39.86
2019-05-19T13:44:09.097Z,38.61
2019-05-19T13:46:37.535Z,38.07
2019-05-19T13:49:05.979Z,38.51
2019-05-19T13:51:34.456Z,38.88
2019-05-19T13:54:02.919Z,38.87
2019-05-19T13:56:33.052Z,45.05
2019-05-19T13:59:01.555Z,46.91
2019-05-19T14:01:30.009Z,47.96
2019-05-19T14:03:58.442Z,48.84
2019-05-19T14:06:27.066Z,50.93
2019-05-19T14:08:55.526Z,51.12
2019-05-19T14:11:23.977Z,51.32
2019-05-19T14:13:52.446Z,51.55
2019-05-19T14:16:20.871Z,51.50
2019-05-19T14:18:49.322Z,51.95
2019-05-19T14:21:17.806Z,51.97
2019-05-19T14:23:46.276Z,51.99
2019-05-19T14:26:14.757Z,50.95
2019-05-19T14:28:43.198Z,52.58
2019-05-19T14:31:11.653Z,54.05
2019-05-19T14:33:40.122Z,57.42
2019-05-19T14:36:08.570Z,60.06
2019-05-19T14:38:38.668Z,60.30
2019-05-19T14:41:07.159Z,63.89
2019-05-19T14:43:35.630Z,64.72
2019-05-19T14:46:04.064Z,62.62
2019-05-19T14:48:32.524Z,64.06
2019-05-19T14:51:01.008Z,63.56
2019-05-19T14:53:29.483Z,62.68
2019-05-19T14:55:57.935Z,64.23
2019-05-19T14:58:26.385Z,64.84
2019-05-19T15:00:54.828Z,64.08
2019-05-19T15:03:23.273Z,64.28
2019-05-19T15:05:52.133Z,64.11
2019-05-19T15:08:20.577Z,65.82
2019-05-19T15:10:49.012Z,65.59
2019-05-19T15:13:17.477Z,64.16
2019-05-19T15:15:45.917Z,60.83
2019-05-19T15:18:14.400Z,62.36
2019-05-19T15:20:42.859Z,65.77
2019-05-19T15:23:11.314Z,62.91
2019-05-19T15:25:39.845Z,62.69
2019-05-19T15:28:08.500Z,62.51
2019-05-19T15:30:36.934Z,60.84
2019-05-19T15:33:05.360Z,60.02
2019-05-19T15:35:33.846Z,58.82
2019-05-19T15:38:02.333Z,58.08
2019-05-19T15:40:30.797Z,58.51
2019-05-19T15:42:59.238Z,58.40
2019-05-19T15:45:27.711Z,57.91
2019-05-19T15:47:56.242Z,58.64
2019-05-19T15:50:24.687Z,58.19
2019-05-19T15:52:53.148Z,58.93
2019-05-19T15:55:21.601Z,56.89
2019-05-19T15:57:50.070Z,57.14
2019-05-19T16:00:20.201Z,56.94
2019-05-19T16:02:48.665Z,57.05
2019-05-19T16:05:17.124Z,56.86
2019-05-19T16:07:45.592Z,57.06
2019-05-19T16:10:14.794Z,58.19
2019-05-19T16:12:43.243Z,56.29
2019-05-19T16:15:12.526Z,56.69
2019-05-19T16:17:41.020Z,55.91
2019-05-19T16:20:09.591Z,54.34
2019-05-19T16:22:38.027Z,53.08
2019-05-19T16:25:07.823Z,51.58
2019-05-19T16:27:36.322Z,50.70
2019-05-19T16:30:06.696Z,50.74
2019-05-19T16:32:35.144Z,49.63
2019-05-19T16:35:04.198Z,49.83
2019-05-19T16:37:32.822Z,49.25
2019-05-19T16:40:01.331Z,49.08
2019-05-19T16:42:29.807Z,51.39
2019-05-19T16:44:58.266Z,53.10
2019-05-19T16:47:26.730Z,54.09
2019-05-19T16:49:55.202Z,55.43
2019-05-19T16:52:23.646Z,56.26
2019-05-19T16:55:10.060Z,58.17
2019-05-19T16:57:38.488Z,58.15
2019-05-19T17:00:07.322Z,58.54
2019-05-19T17:02:35.731Z,59.42
2019-05-19T17:05:05.763Z,59.57
2019-05-19T17:07:34.220Z,59.19
2019-05-19T17:10:02.740Z,60.08
2019-05-19T17:12:31.249Z,59.88
2019-05-19T17:14:59.689Z,60.40
2019-05-19T17:17:28.153Z,60.54
2019-05-19T17:19:56.648Z,60.42
2019-05-19T17:22:25.130Z,60.87
2019-05-19T17:24:53.587Z,60.77
2019-05-19T17:27:22.011Z,61.06
2019-05-19T17:29:50.507Z,61.78
2019-05-19T17:32:18.943Z,61.83
2019-05-19T17:34:47.423Z,62.63
2019-05-19T17:37:15.927Z,62.63
2019-05-19T17:39:44.421Z,62.62
2019-05-19T17:42:13.849Z,63.12
2019-05-19T17:44:42.608Z,63.47
2019-05-19T17:47:11.059Z,63.98
2019-05-19T17:49:39.525Z,64.32
2019-05-19T17:52:07.999Z,64.34
2019-05-19T17:54:36.450Z,65.13
2019-05-19T17:57:04.985Z,65.06
2019-05-19T17:59:34.149Z,65.53
2019-05-19T18:02:02.609Z,65.64
2019-05-19T18:04:31.093Z,65.66
2019-05-19T18:06:59.575Z,65.81
2019-05-19T18:09:28.016Z,66.01
2019-05-19T18:11:56.478Z,66.23
2019-05-19T18:14:24.967Z,66.51
2019-05-19T18:16:53.447Z,67.13
2019-05-19T18:19:21.892Z,66.74
2019-05-19T18:21:50.329Z,66.71
2019-05-19T18:24:18.828Z,66.68
2019-05-19T18:26:47.304Z,67.23
2019-05-19T18:29:15.789Z,67.27
2019-05-19T18:31:44.266Z,67.06
2019-05-19T18:34:12.740Z,66.89
2019-05-19T18:36:41.191Z,67.09
2019-05-19T18:39:09.645Z,67.35
2019-05-19T18:41:38.108Z,66.98
2019-05-19T18:44:06.559Z,66.68
2019-05-19T18:46:34.998Z,66.61
2019-05-19T18:49:03.483Z,66.09
2019-05-19T18:51:31.927Z,65.66
2019-05-19T18:54:00.387Z,65.58
2019-05-19T18:56:28.835Z,65.07
2019-05-19T18:58:57.355Z,65.24
2019-05-19T19:01:25.785Z,65.39
2019-05-19T19:03:55.517Z,64.75
2019-05-19T19:06:24.322Z,65.11
2019-05-19T19:08:52.801Z,65.02
2019-05-19T19:11:21.284Z,64.63
2019-05-19T19:13:49.752Z,64.68
2019-05-19T19:16:18.192Z,65.23
2019-05-19T19:18:46.649Z,66.35
2019-05-19T19:21:15.131Z,65.62
2019-05-19T19:23:43.585Z,66.03
2019-05-19T19:26:12.087Z,65.72
2019-05-19T19:28:40.563Z,65.67
2019-05-19T19:31:08.998Z,66.52
2019-05-19T19:33:37.479Z,66.97
2019-05-19T19:36:05.970Z,67.11
2019-05-19T19:38:35.287Z,68.21
2019-05-19T19:41:03.755Z,68.03
2019-05-19T19:43:32.198Z,69.64
2019-05-19T19:46:00.710Z,69.87
2019-05-19T19:48:29.108Z,69.37
2019-05-19T19:50:57.557Z,70.02
2019-05-19T19:53:26.005Z,71.57
2019-05-19T19:55:54.499Z,70.01
2019-05-19T19:58:23.109Z,70.57
2019-05-19T20:00:51.646Z,69.90
2019-05-19T20:03:20.157Z,69.74
2019-05-19T20:05:50.313Z,69.14
2019-05-19T20:08:18.764Z,69.46
2019-05-19T20:10:47.259Z,70.20
2019-05-19T20:13:15.697Z,69.96
2019-05-19T20:15:44.151Z,70.32
2019-05-19T20:18:12.591Z,69.11
2019-05-19T20:20:41.052Z,68.92
2019-05-19T20:23:09.478Z,68.52
2019-05-19T20:25:37.936Z,68.78
2019-05-19T20:28:06.421Z,68.15
2019-05-19T20:30:36.501Z,68.70
2019-05-19T20:33:05.106Z,68.31
2019-05-19T20:35:33.800Z,69.10
2019-05-19T20:38:02.271Z,69.79
2019-05-19T20:40:30.708Z,71.68
2019-05-19T20:42:59.190Z,71.93
2019-05-19T20:45:27.635Z,73.73
2019-05-19T20:47:56.081Z,75.94
2019-05-19T20:50:24.556Z,73.33
2019-05-19T20:52:53.003Z,75.29
2019-05-19T20:55:21.448Z,77.09
2019-05-19T20:57:49.923Z,75.78
2019-05-19T21:00:18.477Z,75.73
2019-05-19T21:02:46.922Z,77.31
2019-05-19T21:05:15.381Z,75.65
2019-05-19T21:07:43.862Z,75.80
2019-05-19T21:10:12.401Z,75.05
2019-05-19T21:12:40.842Z,75.43
2019-05-19T21:15:10.228Z,75.06
2019-05-19T21:17:38.691Z,74.98
2019-05-19T21:20:08.297Z,75.72
2019-05-19T21:22:36.809Z,75.53
2019-05-19T21:25:07.353Z,75.67
2019-05-19T21:27:35.773Z,76.59
2019-05-19T21:30:05.557Z,76.49
2019-05-19T21:32:34.028Z,75.29
2019-05-19T21:35:02.472Z,74.27
2019-05-19T21:37:30.964Z,75.66
2019-05-19T21:39:59.450Z,75.13
2019-05-19T21:42:27.894Z,75.33
2019-05-19T21:44:56.378Z,75.12
2019-05-19T21:47:24.851Z,75.97
2019-05-19T21:49:53.275Z,75.83
2019-05-19T21:52:21.749Z,75.91
2019-05-19T21:54:50.210Z,75.25
2019-05-19T21:57:18.704Z,76.00
2019-05-19T21:59:47.148Z,76.47
2019-05-19T22:02:15.589Z,77.95
2019-05-19T22:04:44.089Z,75.79
2019-05-19T22:07:14.204Z,77.20
2019-05-19T22:09:42.642Z,77.00
2019-05-19T22:12:11.118Z,76.08
2019-05-19T22:14:39.566Z,76.79
2019-05-19T22:17:08.063Z,76.33
2019-05-19T22:19:36.554Z,76.46
2019-05-19T22:22:05.024Z,76.76
2019-05-19T22:24:33.493Z,76.93
2019-05-19T22:27:01.964Z,76.61
2019-05-19T22:29:30.417Z,77.46
2019-05-19T22:31:58.861Z,77.51
2019-05-19T22:34:27.337Z,77.77
2019-05-19T22:36:55.798Z,78.14
2019-05-19T22:39:24.287Z,78.99
2019-05-19T22:41:52.742Z,79.22
2019-05-19T22:44:21.199Z,79.43
2019-05-19T22:46:49.765Z,79.24
2019-05-19T22:49:18.203Z,79.11
2019-05-19T22:51:46.660Z,79.52
2019-05-19T22:54:15.140Z,79.94
2019-05-19T22:56:43.622Z,80.30
2019-05-19T22:59:19.684Z,80.33
2019-05-19T23:01:51.397Z,80.42
2019-05-19T23:04:12.652Z,80.70
2019-05-19T23:06:41.118Z,81.36
2019-05-19T23:09:09.694Z,81.50
2019-05-19T23:11:38.128Z,81.51
2019-05-19T23:14:06.669Z,82.54
2019-05-19T23:16:35.341Z,82.44
2019-05-19T23:19:03.804Z,82.51
2019-05-19T23:21:34.482Z,82.67
2019-05-19T23:24:02.461Z,82.55
2019-05-19T23:26:30.924Z,82.68
2019-05-19T23:28:59.374Z,82.42
2019-05-19T23:31:27.906Z,82.90
2019-05-19T23:33:59.035Z,82.95
2019-05-19T23:36:27.520Z,82.91
2019-05-19T23:38:55.977Z,83.40
2019-05-19T23:41:24.495Z,82.85
2019-05-19T23:43:52.952Z,83.12
2019-05-19T23:46:21.386Z,83.24
2019-05-19T23:48:49.843Z,84.28
2019-05-19T23:51:18.591Z,83.99
2019-05-19T23:53:47.038Z,84.21
2019-05-19T23:56:15.490Z,83.86
2019-05-19T23:58:43.965Z,84.86
